College City, California
Current Conditions -  °F | °C
As of 6:53 AM on Sunday 23 Nov 2014 (Local Time) from KMYV Reporting Station
Clear Clear  
Wind Chill: 40°   Ceiling: Unl
Heat Index: 46°   Visibility: 10mi
Dew Point: 42°   Wind: 14mph
Humidity: 86%   Direction: 340°NNW
Pressure: 30.29"   Gusts: NA
Location:  39.01°N, 122.01°W
Report Text: KMYV 231453Z AUTO 34012KT 10SM CLR 08/06 A3029 RMK AO2 SLP262 T00780056 53004
Loading
Personal Weather Stations






























Interactive Weather Map New forecast layout! Learn more

10-Day Weather Forecast

Advertisements
Track Severe Weather on mobile